sensor_id;sensor_type;location;lat;lon;timestamp;P1;durP1;ratioP1;P2;durP2;ratioP2
51288;SDS011;37372;52.294;5.152;2022-11-20T00:01:29;24.40;;;13.45;;
51288;SDS011;37372;52.294;5.152;2022-11-20T00:03:56;34.60;;;15.13;;
51288;SDS011;37372;52.294;5.152;2022-11-20T00:06:23;28.27;;;14.52;;
51288;SDS011;37372;52.294;5.152;2022-11-20T00:08:48;22.27;;;14.25;;
51288;SDS011;37372;52.294;5.152;2022-11-20T00:11:18;28.13;;;14.77;;
51288;SDS011;37372;52.294;5.152;2022-11-20T00:13:46;28.85;;;14.55;;
51288;SDS011;37372;52.294;5.152;2022-11-20T00:16:13;27.50;;;14.65;;
51288;SDS011;37372;52.294;5.152;2022-11-20T00:18:40;25.40;;;13.45;;
51288;SDS011;37372;52.294;5.152;2022-11-20T00:21:09;28.25;;;14.43;;
51288;SDS011;37372;52.294;5.152;2022-11-20T00:23:36;25.13;;;14.70;;
51288;SDS011;37372;52.294;5.152;2022-11-20T00:26:05;27.65;;;12.60;;
51288;SDS011;37372;52.294;5.152;2022-11-20T00:28:33;21.08;;;12.10;;
51288;SDS011;37372;52.294;5.152;2022-11-20T00:31:02;28.50;;;12.25;;
51288;SDS011;37372;52.294;5.152;2022-11-20T00:33:32;21.95;;;11.60;;
51288;SDS011;37372;52.294;5.152;2022-11-20T00:36:01;22.38;;;11.10;;
51288;SDS011;37372;52.294;5.152;2022-11-20T00:38:29;24.33;;;12.00;;
51288;SDS011;37372;52.294;5.152;2022-11-20T00:40:56;24.70;;;12.43;;
51288;SDS011;37372;52.294;5.152;2022-11-20T00:43:23;15.70;;;9.30;;
51288;SDS011;37372;52.294;5.152;2022-11-20T00:45:49;19.13;;;9.95;;
51288;SDS011;37372;52.294;5.152;2022-11-20T00:48:14;19.17;;;10.00;;
51288;SDS011;37372;52.294;5.152;2022-11-20T00:50:40;21.73;;;11.68;;
51288;SDS011;37372;52.294;5.152;2022-11-20T00:53:06;24.98;;;11.30;;
51288;SDS011;37372;52.294;5.152;2022-11-20T00:55:32;20.83;;;10.68;;
51288;SDS011;37372;52.294;5.152;2022-11-20T00:57:57;18.73;;;10.45;;
51288;SDS011;37372;52.294;5.152;2022-11-20T01:00:22;19.95;;;9.60;;
51288;SDS011;37372;52.294;5.152;2022-11-20T01:02:48;17.90;;;10.43;;
51288;SDS011;37372;52.294;5.152;2022-11-20T01:05:13;20.17;;;9.20;;
51288;SDS011;37372;52.294;5.152;2022-11-20T01:07:38;19.98;;;9.93;;
51288;SDS011;37372;52.294;5.152;2022-11-20T01:10:04;20.15;;;9.32;;
51288;SDS011;37372;52.294;5.152;2022-11-20T01:12:29;17.55;;;9.85;;
51288;SDS011;37372;52.294;5.152;2022-11-20T01:14:55;18.65;;;8.90;;
51288;SDS011;37372;52.294;5.152;2022-11-20T01:17:20;17.48;;;9.77;;
51288;SDS011;37372;52.294;5.152;2022-11-20T01:19:48;18.30;;;9.20;;
51288;SDS011;37372;52.294;5.152;2022-11-20T01:22:14;14.88;;;7.80;;
51288;SDS011;37372;52.294;5.152;2022-11-20T01:24:39;16.50;;;9.13;;
51288;SDS011;37372;52.294;5.152;2022-11-20T01:27:04;16.90;;;8.82;;
51288;SDS011;37372;52.294;5.152;2022-11-20T01:29:30;19.33;;;9.35;;
51288;SDS011;37372;52.294;5.152;2022-11-20T01:31:55;16.08;;;8.90;;
51288;SDS011;37372;52.294;5.152;2022-11-20T01:34:21;16.05;;;8.25;;
51288;SDS011;37372;52.294;5.152;2022-11-20T01:36:47;24.58;;;11.55;;
51288;SDS011;37372;52.294;5.152;2022-11-20T01:39:18;20.50;;;10.65;;
51288;SDS011;37372;52.294;5.152;2022-11-20T01:41:48;23.52;;;11.50;;
51288;SDS011;37372;52.294;5.152;2022-11-20T01:47:37;17.08;;;9.25;;
51288;SDS011;37372;52.294;5.152;2022-11-20T01:50:11;18.98;;;9.90;;
51288;SDS011;37372;52.294;5.152;2022-11-20T01:52:55;21.48;;;9.98;;
51288;SDS011;37372;52.294;5.152;2022-11-20T01:55:25;22.35;;;10.35;;
51288;SDS011;37372;52.294;5.152;2022-11-20T01:57:54;22.02;;;11.27;;
51288;SDS011;37372;52.294;5.152;2022-11-20T02:00:20;17.92;;;10.40;;
51288;SDS011;37372;52.294;5.152;2022-11-20T02:02:47;18.15;;;9.75;;
51288;SDS011;37372;52.294;5.152;2022-11-20T02:05:23;19.02;;;9.40;;
51288;SDS011;37372;52.294;5.152;2022-11-20T02:07:53;20.15;;;10.32;;
51288;SDS011;37372;52.294;5.152;2022-11-20T02:10:21;20.70;;;10.52;;
51288;SDS011;37372;52.294;5.152;2022-11-20T02:12:46;31.42;;;9.65;;
51288;SDS011;37372;52.294;5.152;2022-11-20T02:15:32;21.77;;;10.18;;
51288;SDS011;37372;52.294;5.152;2022-11-20T02:17:58;18.25;;;9.65;;
51288;SDS011;37372;52.294;5.152;2022-11-20T02:20:24;24.65;;;11.23;;
51288;SDS011;37372;52.294;5.152;2022-11-20T02:23:25;23.33;;;11.50;;
51288;SDS011;37372;52.294;5.152;2022-11-20T02:25:52;20.27;;;11.02;;
51288;SDS011;37372;52.294;5.152;2022-11-20T02:28:19;20.63;;;10.10;;
51288;SDS011;37372;52.294;5.152;2022-11-20T02:30:45;18.55;;;10.02;;
51288;SDS011;37372;52.294;5.152;2022-11-20T02:33:10;19.08;;;10.05;;
51288;SDS011;37372;52.294;5.152;2022-11-20T02:35:38;18.40;;;9.35;;
51288;SDS011;37372;52.294;5.152;2022-11-20T02:38:05;19.25;;;10.10;;
51288;SDS011;37372;52.294;5.152;2022-11-20T02:40:30;17.50;;;9.20;;
51288;SDS011;37372;52.294;5.152;2022-11-20T02:42:56;17.85;;;9.18;;
51288;SDS011;37372;52.294;5.152;2022-11-20T02:45:21;18.25;;;9.93;;
51288;SDS011;37372;52.294;5.152;2022-11-20T02:47:48;18.17;;;10.63;;
51288;SDS011;37372;52.294;5.152;2022-11-20T02:50:14;19.15;;;10.85;;
51288;SDS011;37372;52.294;5.152;2022-11-20T02:52:39;21.65;;;11.20;;
51288;SDS011;37372;52.294;5.152;2022-11-20T02:55:05;21.40;;;10.70;;
51288;SDS011;37372;52.294;5.152;2022-11-20T02:57:31;21.30;;;10.65;;
51288;SDS011;37372;52.294;5.152;2022-11-20T02:59:56;26.25;;;10.43;;
51288;SDS011;37372;52.294;5.152;2022-11-20T03:02:21;18.52;;;10.70;;
51288;SDS011;37372;52.294;5.152;2022-11-20T03:04:47;24.63;;;12.30;;
51288;SDS011;37372;52.294;5.152;2022-11-20T03:07:12;22.42;;;12.15;;
51288;SDS011;37372;52.294;5.152;2022-11-20T03:09:37;23.45;;;10.68;;
51288;SDS011;37372;52.294;5.152;2022-11-20T03:12:03;23.52;;;11.60;;
51288;SDS011;37372;52.294;5.152;2022-11-20T03:14:28;15.65;;;9.55;;
51288;SDS011;37372;52.294;5.152;2022-11-20T03:16:54;17.33;;;9.73;;
51288;SDS011;37372;52.294;5.152;2022-11-20T03:19:20;23.85;;;10.73;;
51288;SDS011;37372;52.294;5.152;2022-11-20T03:21:45;18.25;;;8.10;;
51288;SDS011;37372;52.294;5.152;2022-11-20T03:24:11;21.60;;;11.38;;
51288;SDS011;37372;52.294;5.152;2022-11-20T03:26:37;17.83;;;9.52;;
51288;SDS011;37372;52.294;5.152;2022-11-20T03:29:04;21.92;;;10.23;;
51288;SDS011;37372;52.294;5.152;2022-11-20T03:31:31;16.88;;;9.65;;
51288;SDS011;37372;52.294;5.152;2022-11-20T03:34:00;19.88;;;10.63;;
51288;SDS011;37372;52.294;5.152;2022-11-20T03:36:27;16.60;;;9.02;;
51288;SDS011;37372;52.294;5.152;2022-11-20T03:38:53;17.95;;;9.20;;
51288;SDS011;37372;52.294;5.152;2022-11-20T03:41:21;20.45;;;10.88;;
51288;SDS011;37372;52.294;5.152;2022-11-20T03:43:51;19.55;;;10.50;;
51288;SDS011;37372;52.294;5.152;2022-11-20T03:46:18;17.67;;;10.02;;
51288;SDS011;37372;52.294;5.152;2022-11-20T03:48:44;21.23;;;10.02;;
51288;SDS011;37372;52.294;5.152;2022-11-20T03:51:12;16.85;;;9.32;;
51288;SDS011;37372;52.294;5.152;2022-11-20T03:53:39;26.50;;;10.27;;
51288;SDS011;37372;52.294;5.152;2022-11-20T03:56:06;19.90;;;10.20;;
51288;SDS011;37372;52.294;5.152;2022-11-20T03:58:33;17.27;;;9.30;;
51288;SDS011;37372;52.294;5.152;2022-11-20T04:01:05;21.25;;;11.07;;
51288;SDS011;37372;52.294;5.152;2022-11-20T04:03:31;21.48;;;9.90;;
51288;SDS011;37372;52.294;5.152;2022-11-20T04:06:01;22.58;;;9.95;;
51288;SDS011;37372;52.294;5.152;2022-11-20T04:08:32;20.10;;;10.13;;
51288;SDS011;37372;52.294;5.152;2022-11-20T04:13:45;20.33;;;10.45;;
51288;SDS011;37372;52.294;5.152;2022-11-20T04:16:12;17.50;;;9.35;;
51288;SDS011;37372;52.294;5.152;2022-11-20T04:18:38;17.88;;;9.50;;
51288;SDS011;37372;52.294;5.152;2022-11-20T04:21:03;18.92;;;9.38;;
51288;SDS011;37372;52.294;5.152;2022-11-20T04:23:29;18.17;;;8.77;;
51288;SDS011;37372;52.294;5.152;2022-11-20T04:26:00;18.42;;;8.57;;
51288;SDS011;37372;52.294;5.152;2022-11-20T04:28:27;16.27;;;9.48;;
51288;SDS011;37372;52.294;5.152;2022-11-20T04:30:52;18.70;;;10.07;;
51288;SDS011;37372;52.294;5.152;2022-11-20T04:33:17;21.30;;;9.55;;
51288;SDS011;37372;52.294;5.152;2022-11-20T04:35:43;19.38;;;10.73;;
51288;SDS011;37372;52.294;5.152;2022-11-20T04:38:12;21.48;;;10.38;;
51288;SDS011;37372;52.294;5.152;2022-11-20T04:40:37;20.35;;;10.75;;
51288;SDS011;37372;52.294;5.152;2022-11-20T04:43:02;21.25;;;10.13;;
51288;SDS011;37372;52.294;5.152;2022-11-20T04:45:28;22.38;;;11.20;;
51288;SDS011;37372;52.294;5.152;2022-11-20T04:47:53;19.38;;;10.07;;
51288;SDS011;37372;52.294;5.152;2022-11-20T04:50:18;17.08;;;9.45;;
51288;SDS011;37372;52.294;5.152;2022-11-20T04:52:44;20.90;;;10.93;;
51288;SDS011;37372;52.294;5.152;2022-11-20T04:55:09;21.95;;;10.60;;
51288;SDS011;37372;52.294;5.152;2022-11-20T04:57:34;19.67;;;10.23;;
51288;SDS011;37372;52.294;5.152;2022-11-20T05:00:00;18.05;;;10.00;;
51288;SDS011;37372;52.294;5.152;2022-11-20T05:02:25;20.05;;;10.27;;
51288;SDS011;37372;52.294;5.152;2022-11-20T05:04:51;19.85;;;10.52;;
51288;SDS011;37372;52.294;5.152;2022-11-20T05:07:16;18.92;;;10.95;;
51288;SDS011;37372;52.294;5.152;2022-11-20T05:09:41;23.63;;;10.70;;
51288;SDS011;37372;52.294;5.152;2022-11-20T05:12:07;19.73;;;9.32;;
51288;SDS011;37372;52.294;5.152;2022-11-20T05:14:33;17.48;;;9.48;;
51288;SDS011;37372;52.294;5.152;2022-11-20T05:16:59;17.70;;;10.07;;
51288;SDS011;37372;52.294;5.152;2022-11-20T05:19:24;20.73;;;10.27;;
51288;SDS011;37372;52.294;5.152;2022-11-20T05:21:49;19.00;;;10.23;;
51288;SDS011;37372;52.294;5.152;2022-11-20T05:24:15;21.00;;;10.40;;
51288;SDS011;37372;52.294;5.152;2022-11-20T05:26:40;23.48;;;11.60;;
51288;SDS011;37372;52.294;5.152;2022-11-20T05:29:05;20.67;;;11.15;;
51288;SDS011;37372;52.294;5.152;2022-11-20T05:31:31;22.52;;;10.43;;
51288;SDS011;37372;52.294;5.152;2022-11-20T05:33:56;17.77;;;9.98;;
51288;SDS011;37372;52.294;5.152;2022-11-20T05:36:22;21.23;;;11.02;;
51288;SDS011;37372;52.294;5.152;2022-11-20T05:38:47;22.02;;;10.70;;
51288;SDS011;37372;52.294;5.152;2022-11-20T05:41:14;19.15;;;10.65;;
51288;SDS011;37372;52.294;5.152;2022-11-20T05:43:44;18.63;;;9.98;;
51288;SDS011;37372;52.294;5.152;2022-11-20T05:46:12;22.83;;;10.63;;
51288;SDS011;37372;52.294;5.152;2022-11-20T05:48:39;23.13;;;10.82;;
51288;SDS011;37372;52.294;5.152;2022-11-20T05:51:06;21.67;;;10.43;;
51288;SDS011;37372;52.294;5.152;2022-11-20T05:53:33;22.50;;;10.75;;
51288;SDS011;37372;52.294;5.152;2022-11-20T05:56:00;20.27;;;10.48;;
51288;SDS011;37372;52.294;5.152;2022-11-20T05:58:27;26.27;;;11.32;;
51288;SDS011;37372;52.294;5.152;2022-11-20T06:00:53;22.15;;;11.75;;
51288;SDS011;37372;52.294;5.152;2022-11-20T06:03:18;23.83;;;11.75;;
51288;SDS011;37372;52.294;5.152;2022-11-20T06:05:43;22.83;;;11.55;;
51288;SDS011;37372;52.294;5.152;2022-11-20T06:08:09;17.05;;;10.32;;
51288;SDS011;37372;52.294;5.152;2022-11-20T06:10:34;21.08;;;11.30;;
51288;SDS011;37372;52.294;5.152;2022-11-20T06:13:00;21.27;;;10.88;;
51288;SDS011;37372;52.294;5.152;2022-11-20T06:15:25;23.10;;;11.02;;
51288;SDS011;37372;52.294;5.152;2022-11-20T06:17:53;21.90;;;10.90;;
51288;SDS011;37372;52.294;5.152;2022-11-20T06:20:20;19.83;;;11.40;;
51288;SDS011;37372;52.294;5.152;2022-11-20T06:22:46;19.75;;;10.13;;
51288;SDS011;37372;52.294;5.152;2022-11-20T06:25:11;24.85;;;12.00;;
51288;SDS011;37372;52.294;5.152;2022-11-20T06:27:37;21.42;;;9.93;;
51288;SDS011;37372;52.294;5.152;2022-11-20T06:30:03;20.55;;;10.27;;
51288;SDS011;37372;52.294;5.152;2022-11-20T06:32:28;19.23;;;11.32;;
51288;SDS011;37372;52.294;5.152;2022-11-20T06:34:54;21.00;;;10.98;;
51288;SDS011;37372;52.294;5.152;2022-11-20T06:37:19;21.42;;;10.63;;
51288;SDS011;37372;52.294;5.152;2022-11-20T06:39:44;23.25;;;12.45;;
51288;SDS011;37372;52.294;5.152;2022-11-20T06:42:10;23.73;;;12.75;;
51288;SDS011;37372;52.294;5.152;2022-11-20T06:44:35;25.65;;;11.45;;
51288;SDS011;37372;52.294;5.152;2022-11-20T06:47:01;23.10;;;12.43;;
51288;SDS011;37372;52.294;5.152;2022-11-20T06:49:26;22.98;;;12.10;;
51288;SDS011;37372;52.294;5.152;2022-11-20T06:51:54;23.10;;;11.55;;
51288;SDS011;37372;52.294;5.152;2022-11-20T06:54:20;20.75;;;11.82;;
51288;SDS011;37372;52.294;5.152;2022-11-20T06:56:48;19.40;;;10.15;;
51288;SDS011;37372;52.294;5.152;2022-11-20T06:59:14;21.67;;;12.23;;
51288;SDS011;37372;52.294;5.152;2022-11-20T07:01:39;22.92;;;11.88;;
51288;SDS011;37372;52.294;5.152;2022-11-20T07:04:05;22.55;;;11.57;;
51288;SDS011;37372;52.294;5.152;2022-11-20T07:06:30;21.80;;;10.98;;
51288;SDS011;37372;52.294;5.152;2022-11-20T07:08:55;22.88;;;12.18;;
51288;SDS011;37372;52.294;5.152;2022-11-20T07:11:21;19.05;;;11.32;;
51288;SDS011;37372;52.294;5.152;2022-11-20T07:13:46;19.70;;;11.23;;
51288;SDS011;37372;52.294;5.152;2022-11-20T07:16:12;22.98;;;12.52;;
51288;SDS011;37372;52.294;5.152;2022-11-20T07:18:37;22.88;;;12.95;;
51288;SDS011;37372;52.294;5.152;2022-11-20T07:21:03;22.77;;;11.55;;
51288;SDS011;37372;52.294;5.152;2022-11-20T07:23:31;20.70;;;12.20;;
51288;SDS011;37372;52.294;5.152;2022-11-20T07:25:56;23.20;;;12.85;;
51288;SDS011;37372;52.294;5.152;2022-11-20T07:28:21;24.83;;;13.65;;
51288;SDS011;37372;52.294;5.152;2022-11-20T07:30:53;20.60;;;11.20;;
51288;SDS011;37372;52.294;5.152;2022-11-20T07:33:19;21.88;;;12.85;;
51288;SDS011;37372;52.294;5.152;2022-11-20T07:35:44;22.63;;;12.63;;
51288;SDS011;37372;52.294;5.152;2022-11-20T07:38:10;25.80;;;12.07;;
51288;SDS011;37372;52.294;5.152;2022-11-20T07:40:35;24.27;;;14.48;;
51288;SDS011;37372;52.294;5.152;2022-11-20T07:43:00;22.48;;;11.95;;
51288;SDS011;37372;52.294;5.152;2022-11-20T07:45:26;24.30;;;13.45;;
51288;SDS011;37372;52.294;5.152;2022-11-20T07:47:51;21.92;;;11.70;;
51288;SDS011;37372;52.294;5.152;2022-11-20T07:50:17;23.90;;;11.90;;
51288;SDS011;37372;52.294;5.152;2022-11-20T07:52:43;29.65;;;13.45;;
51288;SDS011;37372;52.294;5.152;2022-11-20T07:55:09;26.00;;;13.82;;
51288;SDS011;37372;52.294;5.152;2022-11-20T07:57:35;25.27;;;13.98;;
51288;SDS011;37372;52.294;5.152;2022-11-20T08:00:00;23.55;;;13.98;;
51288;SDS011;37372;52.294;5.152;2022-11-20T08:02:26;23.80;;;12.55;;
51288;SDS011;37372;52.294;5.152;2022-11-20T08:04:51;24.15;;;13.95;;
51288;SDS011;37372;52.294;5.152;2022-11-20T08:07:16;18.52;;;11.32;;
51288;SDS011;37372;52.294;5.152;2022-11-20T08:09:41;25.52;;;12.52;;
51288;SDS011;37372;52.294;5.152;2022-11-20T08:12:07;23.92;;;13.25;;
51288;SDS011;37372;52.294;5.152;2022-11-20T08:14:51;20.70;;;11.40;;
51288;SDS011;37372;52.294;5.152;2022-11-20T08:17:16;29.92;;;13.57;;
51288;SDS011;37372;52.294;5.152;2022-11-20T08:19:42;27.75;;;12.88;;
51288;SDS011;37372;52.294;5.152;2022-11-20T08:22:07;28.67;;;14.77;;
51288;SDS011;37372;52.294;5.152;2022-11-20T08:24:32;24.15;;;13.32;;
51288;SDS011;37372;52.294;5.152;2022-11-20T08:26:58;23.33;;;11.80;;
51288;SDS011;37372;52.294;5.152;2022-11-20T08:29:25;22.55;;;13.35;;
51288;SDS011;37372;52.294;5.152;2022-11-20T08:31:51;21.38;;;12.77;;
51288;SDS011;37372;52.294;5.152;2022-11-20T08:34:16;26.00;;;14.02;;
51288;SDS011;37372;52.294;5.152;2022-11-20T08:36:42;25.52;;;13.65;;
51288;SDS011;37372;52.294;5.152;2022-11-20T08:39:07;23.52;;;13.32;;
51288;SDS011;37372;52.294;5.152;2022-11-20T08:41:32;23.73;;;13.07;;
51288;SDS011;37372;52.294;5.152;2022-11-20T08:46:25;22.42;;;13.10;;
51288;SDS011;37372;52.294;5.152;2022-11-20T08:48:52;22.05;;;13.15;;
51288;SDS011;37372;52.294;5.152;2022-11-20T08:51:18;26.80;;;14.07;;
51288;SDS011;37372;52.294;5.152;2022-11-20T08:53:44;24.25;;;13.85;;
51288;SDS011;37372;52.294;5.152;2022-11-20T08:56:10;23.02;;;13.57;;
51288;SDS011;37372;52.294;5.152;2022-11-20T08:58:38;22.33;;;12.77;;
51288;SDS011;37372;52.294;5.152;2022-11-20T09:01:04;19.45;;;12.02;;
51288;SDS011;37372;52.294;5.152;2022-11-20T09:03:29;24.35;;;13.85;;
51288;SDS011;37372;52.294;5.152;2022-11-20T09:06:02;23.02;;;12.73;;
51288;SDS011;37372;52.294;5.152;2022-11-20T09:10:56;24.50;;;12.45;;
51288;SDS011;37372;52.294;5.152;2022-11-20T09:13:22;22.38;;;13.00;;
51288;SDS011;37372;52.294;5.152;2022-11-20T09:15:52;24.80;;;12.50;;
51288;SDS011;37372;52.294;5.152;2022-11-20T09:18:22;24.37;;;13.73;;
51288;SDS011;37372;52.294;5.152;2022-11-20T09:20:48;21.98;;;12.70;;
51288;SDS011;37372;52.294;5.152;2022-11-20T09:23:14;24.98;;;14.73;;
51288;SDS011;37372;52.294;5.152;2022-11-20T09:25:40;25.92;;;13.30;;
51288;SDS011;37372;52.294;5.152;2022-11-20T09:28:05;22.48;;;13.05;;
51288;SDS011;37372;52.294;5.152;2022-11-20T09:30:30;25.77;;;14.18;;
51288;SDS011;37372;52.294;5.152;2022-11-20T09:32:56;23.10;;;13.35;;
51288;SDS011;37372;52.294;5.152;2022-11-20T09:35:21;23.38;;;12.95;;
51288;SDS011;37372;52.294;5.152;2022-11-20T09:37:47;24.40;;;13.55;;
51288;SDS011;37372;52.294;5.152;2022-11-20T09:47:01;25.25;;;13.82;;
51288;SDS011;37372;52.294;5.152;2022-11-20T09:52:25;24.15;;;14.20;;
51288;SDS011;37372;52.294;5.152;2022-11-20T09:54:53;26.05;;;13.63;;
51288;SDS011;37372;52.294;5.152;2022-11-20T09:57:28;23.65;;;13.38;;
51288;SDS011;37372;52.294;5.152;2022-11-20T10:00:00;27.30;;;14.32;;
51288;SDS011;37372;52.294;5.152;2022-11-20T10:02:30;26.17;;;15.38;;
51288;SDS011;37372;52.294;5.152;2022-11-20T10:05:11;23.38;;;12.80;;
51288;SDS011;37372;52.294;5.152;2022-11-20T10:10:03;25.20;;;13.88;;
51288;SDS011;37372;52.294;5.152;2022-11-20T10:15:29;23.33;;;13.00;;
51288;SDS011;37372;52.294;5.152;2022-11-20T10:18:09;22.88;;;12.75;;
51288;SDS011;37372;52.294;5.152;2022-11-20T10:20:40;26.20;;;14.05;;
51288;SDS011;37372;52.294;5.152;2022-11-20T10:23:18;23.75;;;13.50;;
51288;SDS011;37372;52.294;5.152;2022-11-20T10:26:03;24.27;;;13.73;;
51288;SDS011;37372;52.294;5.152;2022-11-20T10:31:35;21.98;;;13.48;;
51288;SDS011;37372;52.294;5.152;2022-11-20T10:34:05;26.65;;;14.27;;
51288;SDS011;37372;52.294;5.152;2022-11-20T10:39:54;21.38;;;12.18;;
51288;SDS011;37372;52.294;5.152;2022-11-20T10:42:29;23.83;;;14.35;;
51288;SDS011;37372;52.294;5.152;2022-11-20T10:45:02;27.00;;;14.73;;
51288;SDS011;37372;52.294;5.152;2022-11-20T10:47:40;26.58;;;14.68;;
51288;SDS011;37372;52.294;5.152;2022-11-20T10:50:08;28.00;;;14.32;;
51288;SDS011;37372;52.294;5.152;2022-11-20T10:58:05;30.02;;;15.45;;
51288;SDS011;37372;52.294;5.152;2022-11-20T11:00:37;28.45;;;15.27;;
51288;SDS011;37372;52.294;5.152;2022-11-20T11:03:07;27.55;;;15.18;;
51288;SDS011;37372;52.294;5.152;2022-11-20T11:05:48;30.00;;;16.75;;
51288;SDS011;37372;52.294;5.152;2022-11-20T11:08:19;28.45;;;15.95;;
51288;SDS011;37372;52.294;5.152;2022-11-20T11:13:23;30.15;;;17.65;;
51288;SDS011;37372;52.294;5.152;2022-11-20T11:15:50;27.73;;;15.23;;
51288;SDS011;37372;52.294;5.152;2022-11-20T11:18:30;32.22;;;17.15;;
51288;SDS011;37372;52.294;5.152;2022-11-20T11:20:57;29.30;;;15.93;;
51288;SDS011;37372;52.294;5.152;2022-11-20T11:23:34;28.48;;;17.15;;
51288;SDS011;37372;52.294;5.152;2022-11-20T11:26:04;28.55;;;16.65;;
51288;SDS011;37372;52.294;5.152;2022-11-20T11:28:30;35.67;;;17.92;;
51288;SDS011;37372;52.294;5.152;2022-11-20T11:30:56;30.05;;;16.50;;
51288;SDS011;37372;52.294;5.152;2022-11-20T11:33:29;33.30;;;16.88;;
51288;SDS011;37372;52.294;5.152;2022-11-20T11:35:57;42.78;;;18.55;;
51288;SDS011;37372;52.294;5.152;2022-11-20T11:38:32;34.17;;;18.80;;
51288;SDS011;37372;52.294;5.152;2022-11-20T11:41:01;31.67;;;17.70;;
51288;SDS011;37372;52.294;5.152;2022-11-20T11:43:32;33.28;;;19.20;;
51288;SDS011;37372;52.294;5.152;2022-11-20T11:49:15;35.58;;;18.25;;
51288;SDS011;37372;52.294;5.152;2022-11-20T11:52:03;35.70;;;18.40;;
51288;SDS011;37372;52.294;5.152;2022-11-20T12:00:17;36.03;;;18.45;;
51288;SDS011;37372;52.294;5.152;2022-11-20T12:13:02;41.85;;;21.05;;
51288;SDS011;37372;52.294;5.152;2022-11-20T12:15:38;39.38;;;20.15;;
51288;SDS011;37372;52.294;5.152;2022-11-20T12:18:14;45.78;;;23.25;;
51288;SDS011;37372;52.294;5.152;2022-11-20T12:20:45;40.70;;;20.95;;
51288;SDS011;37372;52.294;5.152;2022-11-20T12:23:44;40.97;;;22.88;;
51288;SDS011;37372;52.294;5.152;2022-11-20T12:26:33;45.03;;;22.05;;
51288;SDS011;37372;52.294;5.152;2022-11-20T12:43:25;44.25;;;23.15;;
51288;SDS011;37372;52.294;5.152;2022-11-20T12:48:51;47.05;;;24.13;;
51288;SDS011;37372;52.294;5.152;2022-11-20T12:57:14;50.03;;;25.27;;
51288;SDS011;37372;52.294;5.152;2022-11-20T13:00:07;50.75;;;25.10;;
51288;SDS011;37372;52.294;5.152;2022-11-20T13:11:09;49.78;;;25.08;;
51288;SDS011;37372;52.294;5.152;2022-11-20T13:13:43;51.50;;;25.33;;
51288;SDS011;37372;52.294;5.152;2022-11-20T13:16:20;50.95;;;24.75;;
51288;SDS011;37372;52.294;5.152;2022-11-20T13:19:02;47.75;;;25.45;;
51288;SDS011;37372;52.294;5.152;2022-11-20T13:21:36;49.60;;;26.20;;
51288;SDS011;37372;52.294;5.152;2022-11-20T13:24:07;55.13;;;28.10;;
51288;SDS011;37372;52.294;5.152;2022-11-20T13:26:47;51.08;;;28.23;;
51288;SDS011;37372;52.294;5.152;2022-11-20T13:29:24;52.97;;;28.38;;
51288;SDS011;37372;52.294;5.152;2022-11-20T13:31:49;53.05;;;26.77;;
51288;SDS011;37372;52.294;5.152;2022-11-20T13:34:25;56.90;;;27.80;;
51288;SDS011;37372;52.294;5.152;2022-11-20T13:36:53;55.88;;;28.52;;
51288;SDS011;37372;52.294;5.152;2022-11-20T13:39:25;51.35;;;26.42;;
51288;SDS011;37372;52.294;5.152;2022-11-20T13:42:42;51.45;;;26.48;;
51288;SDS011;37372;52.294;5.152;2022-11-20T13:44:47;46.72;;;24.63;;
51288;SDS011;37372;52.294;5.152;2022-11-20T13:47:48;50.78;;;25.63;;
51288;SDS011;37372;52.294;5.152;2022-11-20T13:50:13;50.65;;;26.20;;
51288;SDS011;37372;52.294;5.152;2022-11-20T13:52:42;49.33;;;25.13;;
51288;SDS011;37372;52.294;5.152;2022-11-20T13:55:47;51.13;;;27.50;;
51288;SDS011;37372;52.294;5.152;2022-11-20T14:01:13;51.13;;;24.48;;
51288;SDS011;37372;52.294;5.152;2022-11-20T14:03:42;49.33;;;26.92;;
51288;SDS011;37372;52.294;5.152;2022-11-20T14:06:12;54.83;;;27.17;;
51288;SDS011;37372;52.294;5.152;2022-11-20T14:08:46;48.55;;;25.45;;
51288;SDS011;37372;52.294;5.152;2022-11-20T14:11:15;54.15;;;25.02;;
51288;SDS011;37372;52.294;5.152;2022-11-20T14:16:38;57.40;;;27.38;;
51288;SDS011;37372;52.294;5.152;2022-11-20T14:21:45;52.70;;;26.45;;
51288;SDS011;37372;52.294;5.152;2022-11-20T14:24:11;50.40;;;28.00;;
51288;SDS011;37372;52.294;5.152;2022-11-20T14:26:38;51.08;;;27.52;;
51288;SDS011;37372;52.294;5.152;2022-11-20T14:31:47;59.78;;;28.48;;
51288;SDS011;37372;52.294;5.152;2022-11-20T14:34:17;49.83;;;27.17;;
51288;SDS011;37372;52.294;5.152;2022-11-20T14:36:46;54.65;;;28.50;;
51288;SDS011;37372;52.294;5.152;2022-11-20T14:39:19;55.15;;;28.30;;
51288;SDS011;37372;52.294;5.152;2022-11-20T14:41:50;53.97;;;26.58;;
51288;SDS011;37372;52.294;5.152;2022-11-20T14:44:16;60.35;;;31.45;;
51288;SDS011;37372;52.294;5.152;2022-11-20T14:46:41;62.55;;;29.40;;
51288;SDS011;37372;52.294;5.152;2022-11-20T14:49:07;58.75;;;28.55;;
51288;SDS011;37372;52.294;5.152;2022-11-20T14:51:36;58.72;;;30.85;;
51288;SDS011;37372;52.294;5.152;2022-11-20T14:56:56;60.72;;;30.70;;
51288;SDS011;37372;52.294;5.152;2022-11-20T14:59:23;72.20;;;34.65;;
51288;SDS011;37372;52.294;5.152;2022-11-20T15:02:00;69.00;;;36.53;;
51288;SDS011;37372;52.294;5.152;2022-11-20T15:04:29;65.60;;;35.58;;
51288;SDS011;37372;52.294;5.152;2022-11-20T15:06:55;67.18;;;35.85;;
51288;SDS011;37372;52.294;5.152;2022-11-20T15:09:22;66.70;;;30.92;;
51288;SDS011;37372;52.294;5.152;2022-11-20T15:11:52;67.75;;;33.28;;
51288;SDS011;37372;52.294;5.152;2022-11-20T15:14:20;69.72;;;33.67;;
51288;SDS011;37372;52.294;5.152;2022-11-20T15:16:46;70.90;;;29.85;;
51288;SDS011;37372;52.294;5.152;2022-11-20T15:19:21;66.85;;;32.03;;
51288;SDS011;37372;52.294;5.152;2022-11-20T15:21:48;71.35;;;35.72;;
51288;SDS011;37372;52.294;5.152;2022-11-20T15:24:14;62.08;;;33.33;;
51288;SDS011;37372;52.294;5.152;2022-11-20T15:26:40;66.43;;;31.85;;
51288;SDS011;37372;52.294;5.152;2022-11-20T15:29:12;63.65;;;28.95;;
51288;SDS011;37372;52.294;5.152;2022-11-20T15:31:39;69.28;;;31.88;;
51288;SDS011;37372;52.294;5.152;2022-11-20T15:34:10;76.63;;;33.40;;
51288;SDS011;37372;52.294;5.152;2022-11-20T15:36:37;68.18;;;31.98;;
51288;SDS011;37372;52.294;5.152;2022-11-20T15:39:03;68.93;;;31.80;;
51288;SDS011;37372;52.294;5.152;2022-11-20T15:41:29;59.78;;;30.58;;
51288;SDS011;37372;52.294;5.152;2022-11-20T15:43:54;63.92;;;30.38;;
51288;SDS011;37372;52.294;5.152;2022-11-20T15:46:23;67.88;;;33.80;;
51288;SDS011;37372;52.294;5.152;2022-11-20T15:48:54;66.85;;;31.05;;
51288;SDS011;37372;52.294;5.152;2022-11-20T15:51:24;54.97;;;29.00;;
51288;SDS011;37372;52.294;5.152;2022-11-20T15:53:52;65.15;;;33.85;;
51288;SDS011;37372;52.294;5.152;2022-11-20T15:56:17;60.17;;;29.23;;
51288;SDS011;37372;52.294;5.152;2022-11-20T15:58:42;58.65;;;32.13;;
51288;SDS011;37372;52.294;5.152;2022-11-20T16:01:11;67.47;;;32.67;;
51288;SDS011;37372;52.294;5.152;2022-11-20T16:03:38;61.28;;;31.02;;
51288;SDS011;37372;52.294;5.152;2022-11-20T16:06:04;61.53;;;29.88;;
51288;SDS011;37372;52.294;5.152;2022-11-20T16:08:29;63.28;;;31.65;;
51288;SDS011;37372;52.294;5.152;2022-11-20T16:10:55;69.15;;;35.85;;
51288;SDS011;37372;52.294;5.152;2022-11-20T16:13:20;62.35;;;30.13;;
51288;SDS011;37372;52.294;5.152;2022-11-20T16:16:05;62.10;;;31.55;;